createdAt,value
2023-04-25T00:01:37.222Z,10.90
2023-04-25T00:04:07.424Z,10.87
2023-04-25T00:06:37.375Z,10.85
2023-04-25T00:09:08.716Z,10.85
2023-04-25T00:11:38.061Z,10.87
2023-04-25T00:14:07.882Z,10.87
2023-04-25T00:16:36.791Z,10.89
2023-04-25T00:19:05.503Z,10.86
2023-04-25T00:21:33.682Z,10.86
2023-04-25T00:24:02.169Z,10.85
2023-04-25T00:26:30.754Z,10.81
2023-04-25T00:28:59.558Z,10.79
2023-04-25T00:31:27.800Z,10.77
2023-04-25T00:33:56.149Z,10.75
2023-04-25T00:36:24.352Z,10.75
2023-04-25T00:38:55.097Z,10.75
2023-04-25T00:41:23.698Z,10.74
2023-04-25T00:43:53.516Z,10.74
2023-04-25T00:46:21.862Z,10.73
2023-04-25T00:48:50.020Z,10.73
2023-04-25T00:51:22.176Z,10.73
2023-04-25T00:53:51.727Z,10.73
2023-04-25T00:56:22.537Z,10.70
2023-04-25T00:58:54.074Z,10.69
2023-04-25T01:01:22.391Z,10.69
2023-04-25T01:03:52.139Z,10.67
2023-04-25T01:06:20.800Z,10.67
2023-04-25T01:08:48.988Z,10.63
2023-04-25T01:11:17.083Z,10.59
2023-04-25T01:13:45.555Z,10.56
2023-04-25T01:16:14.098Z,10.54
2023-04-25T01:18:43.838Z,10.51
2023-04-25T01:21:14.350Z,10.48
2023-04-25T01:23:43.371Z,10.45
2023-04-25T01:26:12.900Z,10.39
2023-04-25T01:28:42.513Z,10.33
2023-04-25T01:31:14.049Z,10.29
2023-04-25T01:33:42.182Z,10.13
2023-04-25T01:36:10.632Z,9.96
2023-04-25T01:38:39.117Z,9.64
2023-04-25T01:41:07.680Z,9.58
2023-04-25T01:43:36.925Z,9.40
2023-04-25T01:46:05.708Z,9.34
2023-04-25T01:48:34.264Z,9.19
2023-04-25T01:51:02.431Z,9.13
2023-04-25T01:53:31.631Z,9.11
2023-04-25T01:56:00.726Z,9.27
2023-04-25T01:58:33.940Z,9.45
2023-04-25T02:01:28.117Z,9.65
2023-04-25T02:04:06.911Z,9.78
2023-04-25T02:06:38.041Z,9.89
2023-04-25T02:09:06.439Z,9.99
2023-04-25T02:11:34.710Z,10.07
2023-04-25T02:14:23.094Z,10.13
2023-04-25T02:16:59.811Z,10.13
2023-04-25T02:19:28.205Z,10.07
2023-04-25T02:21:58.188Z,10.05
2023-04-25T02:24:29.073Z,10.05
2023-04-25T02:26:58.680Z,10.04
2023-04-25T02:29:26.877Z,10.01
2023-04-25T02:31:55.176Z,10.03
2023-04-25T02:34:23.960Z,10.04
2023-04-25T02:36:52.128Z,10.03
2023-04-25T02:39:20.293Z,10.03
2023-04-25T02:41:48.589Z,10.07
2023-04-25T02:44:17.758Z,10.10
2023-04-25T02:46:46.504Z,10.10
2023-04-25T02:49:14.793Z,10.09
2023-04-25T02:51:42.967Z,10.07
2023-04-25T02:54:11.063Z,10.07
2023-04-25T02:56:42.914Z,10.03
2023-04-25T02:59:14.258Z,10.04
2023-04-25T03:01:42.376Z,10.02
2023-04-25T03:04:10.553Z,10.03
2023-04-25T03:06:38.694Z,10.01
2023-04-25T03:09:06.787Z,10.00
2023-04-25T03:11:34.937Z,10.00
2023-04-25T03:14:03.581Z,9.99
2023-04-25T03:16:32.220Z,10.02
2023-04-25T03:19:00.766Z,10.03
2023-04-25T03:21:28.985Z,10.03
2023-04-25T03:23:57.134Z,10.03
2023-04-25T03:26:25.496Z,10.05
2023-04-25T03:28:53.563Z,10.00
2023-04-25T03:31:22.077Z,10.11
2023-04-25T03:33:50.860Z,10.28
2023-04-25T03:36:20.724Z,10.21
2023-04-25T03:38:49.547Z,10.20
2023-04-25T03:41:17.818Z,10.24
2023-04-25T03:43:53.509Z,10.21
2023-04-25T03:46:24.267Z,10.20
2023-04-25T03:48:52.471Z,10.23
2023-04-25T03:51:23.711Z,10.29
2023-04-25T03:53:52.055Z,10.35
2023-04-25T03:56:23.235Z,10.38
2023-04-25T03:59:00.324Z,10.41
2023-04-25T04:01:28.852Z,10.53
2023-04-25T04:03:57.292Z,10.64
2023-04-25T04:06:26.914Z,10.86
2023-04-25T04:09:04.364Z,11.26
2023-04-25T04:11:37.994Z,11.65
2023-04-25T04:14:07.677Z,12.03
2023-04-25T04:16:36.554Z,12.44
2023-04-25T04:19:04.792Z,12.58
2023-04-25T04:21:34.612Z,12.79
2023-04-25T04:24:03.171Z,12.86
2023-04-25T04:26:35.970Z,12.97
2023-04-25T04:29:24.319Z,13.24
2023-04-25T04:32:09.853Z,13.60
2023-04-25T04:34:38.617Z,14.23
2023-04-25T04:37:08.108Z,14.80
2023-04-25T04:39:38.055Z,15.27
2023-04-25T04:42:17.006Z,15.47
2023-04-25T04:45:11.520Z,15.56
2023-04-25T04:47:58.710Z,15.25
2023-04-25T04:50:59.951Z,15.01
2023-04-25T04:53:51.020Z,14.24
2023-04-25T04:56:32.220Z,13.57
2023-04-25T04:59:19.493Z,13.42
2023-04-25T05:02:08.153Z,13.11
2023-04-25T05:05:02.184Z,13.08
2023-04-25T05:07:53.548Z,12.71
2023-04-25T05:10:46.150Z,12.68
2023-04-25T05:13:38.796Z,12.64
2023-04-25T05:16:33.070Z,12.48
2023-04-25T05:19:33.383Z,12.51
2023-04-25T05:22:33.225Z,12.70
2023-04-25T05:25:30.932Z,13.41
2023-04-25T05:28:06.731Z,13.96
2023-04-25T05:30:41.317Z,13.80
2023-04-25T05:33:22.316Z,14.21
2023-04-25T05:35:51.245Z,14.57
2023-04-25T05:38:19.810Z,15.02
2023-04-25T05:41:10.860Z,15.13
2023-04-25T05:43:54.734Z,15.37
2023-04-25T05:46:42.895Z,15.79
2023-04-25T05:49:33.898Z,16.40
2023-04-25T05:52:11.764Z,17.17
2023-04-25T05:55:03.046Z,17.87
2023-04-25T05:57:33.144Z,18.12
2023-04-25T06:00:02.227Z,18.25
2023-04-25T06:02:43.290Z,18.27
2023-04-25T06:05:12.886Z,18.51
2023-04-25T06:07:42.943Z,18.75
2023-04-25T06:10:11.081Z,18.84
2023-04-25T06:12:39.823Z,19.06
2023-04-25T06:15:19.954Z,19.07
2023-04-25T06:17:57.362Z,19.03
2023-04-25T06:20:26.312Z,19.22
2023-04-25T06:22:57.394Z,19.58
2023-04-25T06:25:45.933Z,19.16
2023-04-25T06:28:14.126Z,19.46
2023-04-25T06:30:42.708Z,19.36
2023-04-25T06:33:13.775Z,19.43
2023-04-25T06:35:42.201Z,19.11
2023-04-25T06:38:12.636Z,18.49
2023-04-25T06:40:41.908Z,17.68
2023-04-25T06:43:10.957Z,17.37
2023-04-25T06:45:51.011Z,16.81
2023-04-25T06:48:20.100Z,16.20
2023-04-25T06:50:48.278Z,16.12
2023-04-25T06:53:16.405Z,15.93
2023-04-25T06:55:46.395Z,15.85
2023-04-25T06:58:19.071Z,15.69
2023-04-25T07:00:58.193Z,15.29
2023-04-25T07:03:28.224Z,14.99
2023-04-25T07:06:00.160Z,15.04
2023-04-25T07:08:30.245Z,15.14
2023-04-25T07:10:59.250Z,15.11
2023-04-25T07:13:27.581Z,15.15
2023-04-25T07:15:57.308Z,15.20
2023-04-25T07:18:25.827Z,15.17
2023-04-25T07:20:54.563Z,15.09
2023-04-25T07:23:22.731Z,15.05
2023-04-25T07:25:51.043Z,15.02
2023-04-25T07:28:22.164Z,14.94
2023-04-25T07:30:50.277Z,14.90
2023-04-25T07:33:21.485Z,14.93
2023-04-25T07:35:49.685Z,15.10
2023-04-25T07:38:19.086Z,15.30
2023-04-25T07:40:49.189Z,15.43
2023-04-25T07:43:18.138Z,15.57
2023-04-25T07:45:52.201Z,15.72
2023-04-25T07:48:21.087Z,15.95
2023-04-25T07:50:49.680Z,16.14
2023-04-25T07:53:19.013Z,16.26
2023-04-25T07:55:54.628Z,16.34
2023-04-25T07:58:23.491Z,16.25
2023-04-25T08:00:55.686Z,15.92
2023-04-25T08:03:42.504Z,15.81
2023-04-25T08:06:20.145Z,15.66
2023-04-25T08:09:10.519Z,15.52
2023-04-25T08:11:40.856Z,15.33
2023-04-25T08:14:10.401Z,15.20
2023-04-25T08:16:39.315Z,15.20
2023-04-25T08:19:07.439Z,15.27
2023-04-25T08:21:36.645Z,15.36
2023-04-25T08:24:07.351Z,15.46
2023-04-25T08:26:39.781Z,15.48
2023-04-25T08:29:08.356Z,15.41
2023-04-25T08:31:38.330Z,15.42
2023-04-25T08:34:07.204Z,15.38
2023-04-25T08:36:50.327Z,15.31
2023-04-25T08:39:53.792Z,15.14
2023-04-25T08:42:23.561Z,15.06
2023-04-25T08:44:54.215Z,14.92
2023-04-25T08:47:24.990Z,14.83
2023-04-25T08:49:57.422Z,14.73
2023-04-25T08:52:31.694Z,14.62
2023-04-25T08:55:02.588Z,14.47
2023-04-25T08:57:32.804Z,14.38
2023-04-25T09:00:02.268Z,14.29
2023-04-25T09:02:34.714Z,14.13
2023-04-25T09:05:05.488Z,14.11
2023-04-25T09:07:34.221Z,14.04
2023-04-25T09:10:04.502Z,13.99
2023-04-25T09:12:36.776Z,13.98
2023-04-25T09:15:08.327Z,13.90
2023-04-25T09:17:58.813Z,13.69
2023-04-25T09:20:31.925Z,13.56
2023-04-25T09:23:07.861Z,13.41
2023-04-25T09:25:40.148Z,13.23
2023-04-25T09:28:10.228Z,13.04
2023-04-25T09:30:38.421Z,12.80
2023-04-25T09:33:17.233Z,12.72
2023-04-25T09:35:56.504Z,12.58
2023-04-25T09:38:48.458Z,12.47
2023-04-25T09:41:31.227Z,12.36
2023-04-25T09:44:03.595Z,12.34
2023-04-25T09:46:37.994Z,12.32
2023-04-25T09:49:09.510Z,12.30
2023-04-25T09:51:59.434Z,12.25
2023-04-25T09:54:31.294Z,12.32
2023-04-25T09:57:15.313Z,12.41
2023-04-25T09:59:54.755Z,12.49
2023-04-25T10:02:26.326Z,12.58
2023-04-25T10:04:57.727Z,12.69
2023-04-25T10:07:32.632Z,12.69
2023-04-25T10:10:04.559Z,12.62
2023-04-25T10:12:35.138Z,12.70
2023-04-25T10:15:05.335Z,12.85
2023-04-25T10:17:35.402Z,12.83
2023-04-25T10:20:09.377Z,12.75
2023-04-25T10:22:42.444Z,12.83
2023-04-25T10:25:12.329Z,12.94
2023-04-25T10:27:40.816Z,13.02
2023-04-25T10:30:15.483Z,12.95
2023-04-25T10:32:44.322Z,12.92
2023-04-25T10:35:17.046Z,12.88
2023-04-25T10:38:11.819Z,12.88
2023-04-25T10:40:40.034Z,12.73
2023-04-25T10:43:32.902Z,12.75
2023-04-25T10:46:04.368Z,12.63
2023-04-25T10:48:32.742Z,12.47
2023-04-25T10:51:18.664Z,12.39
2023-04-25T10:53:56.625Z,12.39
2023-04-25T10:56:28.765Z,12.41
2023-04-25T10:59:17.702Z,12.39
2023-04-25T11:02:12.828Z,12.42
2023-04-25T11:04:42.690Z,12.39
2023-04-25T11:07:11.068Z,12.45
2023-04-25T11:09:41.822Z,12.52
2023-04-25T11:12:12.971Z,12.58
2023-04-25T11:17:14.682Z,12.76
2023-04-25T11:19:42.904Z,12.88
2023-04-25T11:22:13.578Z,12.99
2023-04-25T11:24:42.208Z,12.94
2023-04-25T11:27:10.606Z,12.77
2023-04-25T11:29:40.335Z,12.92
2023-04-25T11:32:09.021Z,13.01
2023-04-25T11:34:37.188Z,13.02
2023-04-25T11:37:05.710Z,12.99
2023-04-25T11:39:33.955Z,12.99
2023-04-25T11:42:03.872Z,12.98
2023-04-25T11:44:36.393Z,12.89
2023-04-25T11:47:04.949Z,12.96
2023-04-25T11:49:33.522Z,13.00
2023-04-25T11:52:01.622Z,12.92
2023-04-25T11:54:29.909Z,12.89
2023-04-25T11:56:58.211Z,12.95
2023-04-25T11:59:27.244Z,13.04
2023-04-25T12:01:55.499Z,13.00
2023-04-25T12:04:26.516Z,13.17
2023-04-25T12:06:56.512Z,13.25
2023-04-25T12:09:32.985Z,13.35
2023-04-25T12:12:05.124Z,13.32
2023-04-25T12:14:35.310Z,13.50
2023-04-25T12:17:06.500Z,13.49
2023-04-25T12:19:41.548Z,13.69
2023-04-25T12:22:36.075Z,13.81
2023-04-25T12:25:09.113Z,13.90
2023-04-25T12:27:37.153Z,13.97
2023-04-25T12:30:06.067Z,13.89
2023-04-25T12:32:34.125Z,13.80
2023-04-25T12:35:02.382Z,13.80
2023-04-25T12:37:31.159Z,13.84
2023-04-25T12:39:59.284Z,13.96
2023-04-25T12:42:27.432Z,14.10
2023-04-25T12:44:55.706Z,14.07
2023-04-25T12:47:23.859Z,14.21
2023-04-25T12:49:52.188Z,14.34
2023-04-25T12:52:20.379Z,14.18
2023-04-25T12:54:48.417Z,14.21
2023-04-25T12:57:16.934Z,14.08
2023-04-25T12:59:45.068Z,13.89
2023-04-25T13:02:13.832Z,14.16
2023-04-25T13:04:42.070Z,14.17
2023-04-25T13:07:10.669Z,14.24
2023-04-25T13:09:39.465Z,14.20
2023-04-25T13:12:08.721Z,14.18
2023-04-25T13:14:36.869Z,14.20
2023-04-25T13:17:05.148Z,14.29
2023-04-25T13:19:33.458Z,14.26
2023-04-25T13:22:02.230Z,14.34
2023-04-25T13:24:31.077Z,14.46
2023-04-25T13:26:59.181Z,14.43
2023-04-25T13:29:27.391Z,14.40
2023-04-25T13:31:56.112Z,14.07
2023-04-25T13:34:24.432Z,14.08
2023-04-25T13:36:52.562Z,14.01
2023-04-25T13:39:21.068Z,14.02
2023-04-25T13:41:49.537Z,13.95
2023-04-25T13:44:17.665Z,13.90
2023-04-25T13:46:47.905Z,14.01
2023-04-25T13:49:16.721Z,14.01
2023-04-25T13:51:45.099Z,14.01
2023-04-25T13:54:13.230Z,14.00
2023-04-25T13:56:43.491Z,14.01
2023-04-25T13:59:12.462Z,13.94
2023-04-25T14:01:40.965Z,13.84
2023-04-25T14:04:09.368Z,13.81
2023-04-25T14:06:37.871Z,13.74
2023-04-25T14:09:07.887Z,13.79
2023-04-25T14:11:36.092Z,13.76
2023-04-25T14:14:04.184Z,13.71
2023-04-25T14:16:33.160Z,13.74
2023-04-25T14:19:02.009Z,13.69
2023-04-25T14:21:33.397Z,13.68
2023-04-25T14:24:01.680Z,13.71
2023-04-25T14:26:29.843Z,13.73
2023-04-25T14:28:58.010Z,13.78
2023-04-25T14:31:26.202Z,13.92
2023-04-25T14:33:56.312Z,13.98
2023-04-25T14:36:27.595Z,14.01
2023-04-25T14:38:56.478Z,14.07
2023-04-25T14:41:26.070Z,14.15
2023-04-25T14:43:54.427Z,14.07
2023-04-25T14:46:23.435Z,14.04
2023-04-25T14:48:52.132Z,13.99
2023-04-25T14:51:20.339Z,14.10
2023-04-25T14:53:48.478Z,14.13
2023-04-25T14:56:16.767Z,14.02
2023-04-25T14:58:44.875Z,13.73
2023-04-25T15:01:14.188Z,13.54
2023-04-25T15:03:42.705Z,13.52
2023-04-25T15:06:11.211Z,13.49
2023-04-25T15:08:39.334Z,13.28
2023-04-25T15:11:07.437Z,13.34
2023-04-25T15:13:36.150Z,13.33
2023-04-25T15:16:04.461Z,13.30
2023-04-25T15:18:32.603Z,13.39
2023-04-25T15:21:00.911Z,13.30
2023-04-25T15:23:29.864Z,13.20
2023-04-25T15:25:59.505Z,13.31
2023-04-25T15:28:27.639Z,13.33
2023-04-25T15:30:56.274Z,13.47
2023-04-25T15:33:24.396Z,13.33
2023-04-25T15:35:52.620Z,13.53
2023-04-25T15:38:20.885Z,13.60
2023-04-25T15:40:49.082Z,13.70
2023-04-25T15:43:17.542Z,13.77
2023-04-25T15:45:46.221Z,13.77
2023-04-25T15:48:14.709Z,13.78
2023-04-25T15:50:42.856Z,13.70
2023-04-25T15:53:11.324Z,13.69
2023-04-25T15:55:40.146Z,13.82
2023-04-25T15:58:09.957Z,13.82
2023-04-25T16:00:40.690Z,13.74
2023-04-25T16:03:10.164Z,13.77
2023-04-25T16:05:38.580Z,13.78
2023-04-25T16:08:06.825Z,13.75
2023-04-25T16:10:35.077Z,13.66
2023-04-25T16:13:03.930Z,13.67
2023-04-25T16:15:34.661Z,13.62
2023-04-25T16:18:04.348Z,13.62
2023-04-25T16:20:33.017Z,13.61
2023-04-25T16:23:01.572Z,13.65
2023-04-25T16:25:29.869Z,13.58
2023-04-25T16:27:58.021Z,13.51
2023-04-25T16:30:26.493Z,13.60
2023-04-25T16:32:57.512Z,13.48
2023-04-25T16:35:26.342Z,13.45
2023-04-25T16:37:54.988Z,13.46
2023-04-25T16:40:23.580Z,13.48
2023-04-25T16:42:51.666Z,13.47
2023-04-25T16:45:21.576Z,13.47
2023-04-25T16:47:49.836Z,13.48
2023-04-25T16:50:19.300Z,13.44
2023-04-25T16:52:47.452Z,13.39
2023-04-25T16:55:15.702Z,13.39
2023-04-25T16:57:43.811Z,13.43
2023-04-25T17:00:13.076Z,13.48
2023-04-25T17:02:41.750Z,13.47
2023-04-25T17:05:10.773Z,13.44
2023-04-25T17:07:38.934Z,13.42
2023-04-25T17:10:07.568Z,13.39
2023-04-25T17:12:35.864Z,13.37
2023-04-25T17:15:04.731Z,13.26
2023-04-25T17:17:33.346Z,13.19
2023-04-25T17:20:03.571Z,13.17
2023-04-25T17:22:31.943Z,13.04
2023-04-25T17:25:00.139Z,12.95
2023-04-25T17:27:28.632Z,12.84
2023-04-25T17:29:56.758Z,12.87
2023-04-25T17:32:24.872Z,12.91
2023-04-25T17:34:52.963Z,12.94
2023-04-25T17:37:21.380Z,12.97
2023-04-25T17:39:50.180Z,13.01
2023-04-25T17:42:18.391Z,13.03
2023-04-25T17:44:46.482Z,13.06
2023-04-25T17:47:14.731Z,13.05
2023-04-25T17:49:43.140Z,13.04
2023-04-25T17:52:11.352Z,13.06
2023-04-25T17:54:39.758Z,13.11
2023-04-25T17:57:08.189Z,13.15
2023-04-25T17:59:36.678Z,13.22
2023-04-25T18:02:05.096Z,13.28
2023-04-25T18:04:33.318Z,13.34
2023-04-25T18:07:01.938Z,13.40
2023-04-25T18:09:30.232Z,13.43
2023-04-25T18:12:01.457Z,13.48
2023-04-25T18:14:29.960Z,13.48
2023-04-25T18:16:58.087Z,13.49
2023-04-25T18:19:26.264Z,13.51
2023-04-25T18:21:55.614Z,13.51
2023-04-25T18:24:27.545Z,13.50
2023-04-25T18:26:57.101Z,13.49
2023-04-25T18:29:33.103Z,13.46
2023-04-25T18:32:02.658Z,13.41
2023-04-25T18:34:32.110Z,13.35
2023-04-25T18:37:00.180Z,13.37
2023-04-25T18:39:29.214Z,13.35
2023-04-25T18:42:04.136Z,13.36
2023-04-25T18:44:40.136Z,13.33
2023-04-25T18:47:13.348Z,13.29
2023-04-25T18:49:41.651Z,13.27
2023-04-25T18:52:11.970Z,13.24
2023-04-25T18:54:40.063Z,13.20
2023-04-25T18:57:08.362Z,13.18
2023-04-25T18:59:36.492Z,13.18
2023-04-25T19:02:05.597Z,13.16
2023-04-25T19:04:34.396Z,13.10
2023-04-25T19:07:04.382Z,13.10
2023-04-25T19:09:32.801Z,13.10
2023-04-25T19:12:01.953Z,13.10
2023-04-25T19:14:32.474Z,13.14
2023-04-25T19:17:01.045Z,13.14
2023-04-25T19:19:29.594Z,13.16
2023-04-25T19:21:58.988Z,13.18
2023-04-25T19:24:27.453Z,13.19
2023-04-25T19:26:55.628Z,13.19
2023-04-25T19:29:23.760Z,13.20
2023-04-25T19:31:51.955Z,13.25
2023-04-25T19:34:20.059Z,13.32
2023-04-25T19:36:49.006Z,13.30
2023-04-25T19:39:17.140Z,13.21
2023-04-25T19:41:45.492Z,13.23
2023-04-25T19:44:13.592Z,13.26
2023-04-25T19:46:42.792Z,13.24
2023-04-25T19:49:11.400Z,13.19
2023-04-25T19:51:39.789Z,13.18
2023-04-25T19:54:08.093Z,13.16
2023-04-25T19:56:36.554Z,13.14
2023-04-25T19:59:04.613Z,13.11
2023-04-25T20:01:32.782Z,13.07
2023-04-25T20:04:02.830Z,12.97
2023-04-25T20:06:31.429Z,12.87
2023-04-25T20:08:59.645Z,12.78
2023-04-25T20:11:29.395Z,12.70
2023-04-25T20:13:57.603Z,12.65
2023-04-25T20:16:26.448Z,12.57
2023-04-25T20:18:55.513Z,12.52
2023-04-25T20:21:24.033Z,12.46
2023-04-25T20:23:52.278Z,12.47
2023-04-25T20:26:22.625Z,12.46
2023-04-25T20:28:52.139Z,12.49
2023-04-25T20:31:21.110Z,12.48
2023-04-25T20:33:49.476Z,12.49
2023-04-25T20:36:19.521Z,12.41
2023-04-25T20:38:48.122Z,12.48
2023-04-25T20:41:16.268Z,12.43
2023-04-25T20:43:44.609Z,12.43
2023-04-25T20:46:13.193Z,12.45
2023-04-25T20:48:41.283Z,12.46
2023-04-25T20:51:09.464Z,12.41
2023-04-25T20:53:38.070Z,12.38
2023-04-25T20:56:06.735Z,12.38
2023-04-25T20:58:37.426Z,12.41
2023-04-25T21:01:08.235Z,12.45
2023-04-25T21:03:36.698Z,12.45
2023-04-25T21:06:05.284Z,12.46
2023-04-25T21:08:33.944Z,12.47
2023-04-25T21:11:02.128Z,12.49
2023-04-25T21:13:30.663Z,12.51
2023-04-25T21:15:59.732Z,12.53
2023-04-25T21:18:28.235Z,12.51
2023-04-25T21:20:56.473Z,12.50
2023-04-25T21:23:24.628Z,12.51
2023-04-25T21:25:54.325Z,12.52
2023-04-25T21:28:25.339Z,12.52
2023-04-25T21:30:53.607Z,12.49
2023-04-25T21:33:22.267Z,12.39
2023-04-25T21:35:50.624Z,12.32
2023-04-25T21:38:18.881Z,12.15
2023-04-25T21:40:47.083Z,12.07
2023-04-25T21:43:15.495Z,11.99
2023-04-25T21:46:11.016Z,11.92
2023-04-25T21:48:31.990Z,11.84
2023-04-25T21:51:00.419Z,11.88
2023-04-25T21:53:28.652Z,11.87
2023-04-25T21:55:56.796Z,11.80
2023-04-25T21:58:24.941Z,11.67
2023-04-25T22:00:53.195Z,11.53
2023-04-25T22:03:21.530Z,11.49
2023-04-25T22:05:49.847Z,11.45
2023-04-25T22:08:18.158Z,11.47
2023-04-25T22:10:46.548Z,11.46
2023-04-25T22:13:15.478Z,11.40
2023-04-25T22:15:43.977Z,11.38
2023-04-25T22:18:13.419Z,11.39
2023-04-25T22:20:42.064Z,11.40
2023-04-25T22:23:10.228Z,11.41
2023-04-25T22:25:38.503Z,11.39
2023-04-25T22:28:07.050Z,11.41
2023-04-25T22:30:35.311Z,11.44
2023-04-25T22:33:03.605Z,11.46
2023-04-25T22:35:31.987Z,11.46
2023-04-25T22:38:00.156Z,11.48
2023-04-25T22:40:30.272Z,11.51
2023-04-25T22:42:58.782Z,11.51
2023-04-25T22:45:27.523Z,11.53
2023-04-25T22:47:55.879Z,11.58
2023-04-25T22:50:24.303Z,11.54
2023-04-25T22:52:52.391Z,11.55
2023-04-25T22:55:20.643Z,11.59
2023-04-25T22:57:48.772Z,11.63
2023-04-25T23:00:20.376Z,11.67
2023-04-25T23:02:50.581Z,11.66
2023-04-25T23:05:18.782Z,11.60
2023-04-25T23:07:47.303Z,11.62
2023-04-25T23:10:15.495Z,11.61
2023-04-25T23:12:44.124Z,11.64
2023-04-25T23:15:13.614Z,11.53
2023-04-25T23:17:42.470Z,11.51
2023-04-25T23:20:11.717Z,11.50
2023-04-25T23:22:39.991Z,11.49
2023-04-25T23:25:09.765Z,11.43
2023-04-25T23:27:38.272Z,11.35
2023-04-25T23:30:06.987Z,11.28
2023-04-25T23:32:35.196Z,11.16
2023-04-25T23:35:05.151Z,11.08
2023-04-25T23:37:34.838Z,11.05
2023-04-25T23:40:10.377Z,11.00
2023-04-25T23:42:41.290Z,10.95
2023-04-25T23:45:09.978Z,10.88
2023-04-25T23:47:38.183Z,10.78
2023-04-25T23:50:08.245Z,10.67
2023-04-25T23:52:36.352Z,10.60
2023-04-25T23:55:05.539Z,10.55
2023-04-25T23:57:34.108Z,10.50
